Terminal Aerodrome Forecast
Issued by NWS Wilmington, OH

Current Version | Previous Version | Graphics & Text | Print | Product List | Glossary On
Versions: 1 2 3 4 5 6 7 8 9 10 11 12 13 14 15 16 17 18 19 20 21 22 23
000
FTUS41 KILN 211733
TAFCVG
TAF
KCVG 211733Z 2118/2224 22011KT P6SM VCTS BKN015CB OVC025
      TEMPO 2118/2120 3SM -TSRA BR OVC015CB
     FM212000 25010KT P6SM VCSH BKN015 BKN028
     FM212200 25009KT P6SM SCT027
     FM220100 29007KT P6SM SCT035
     FM221600 28008KT P6SM FEW040 SCT250=

USA.gov is the U.S. government's official web portal to all federal, state and local government web resources and services.